Relevés horaires Melle (Belgique)


Relevés horaires à Melle - Dimanche 01 Nov. 2015
Heure UTC1 Température [°C] Vent [km/h] Hum. [%] Pres.4 [hPa] Visi. [Km] Nébu. [octa] Préc.5 [mm] Cond.
2m. Res. Ros. Dir.2 Vit. Moy. Raf.3
23:00 5.1 5.1 4.2 NNO 0.0 1.9 1.9 94 1029(-0.7/3h) -- -- -- --
22:00 6.2 6.2 5.3 O 1.9 1.9 1.9 94 1029.3(-0.8/3h) -- -- -- --
21:00 7.4 7.4 6.4 E 1.9 3.7 3.7 93 1029.6(-0.8/3h) -- -- -- --
20:00 6.8 6.8 5.7 ESE 1.9 1.9 3.7 93 1029.7(-0.4/3h) -- -- -- --
19:00 7.9 7.9 6.6 SSO 1.9 1.9 1.9 91 1030.1(0.4/3h) -- -- -- --
18:00 10.1 10.1 8.5 NNO 0.0 3.7 3.7 90 1030.3(0.8/3h) -- -- 0.1/12h
--
17:00 11.2 11.2 8.7 ENE 1.9 3.7 3.7 85 1030(0.3/3h) -- -- -- --
16:00 16.6 16.6 11.1 NE 1.9 3.7 3.7 70 1029.6(-0.3/3h) -- -- -- --
15:00 17.6 17.6 11.1 NE 1.9 3.7 3.7 66 1029.5(-0.8/3h) -- -- -- --
14:00 17.6 17.6 10.9 E 1.9 1.9 3.7 65 1029.7(-0.8/3h) -- -- -- --
13:00 17.5 17.5 10.8 NNO 0.0 1.9 3.7 65 1029.9(-0.8/3h) -- -- -- --
12:00 16.0 16.0 10.2 N 1.9 7.4 9.3 68 1030.3(-0.5/3h) -- -- 0.1/6h
--
11:00 14.6 14.6 10.1 S 3.7 5.6 7.4 74 1030.5(-0.2/3h) -- -- -- --
10:00 12.1 12 9.2 S 5.6 7.4 9.3 82 1030.7(0.4/3h) -- -- -- --
09:00 10.1 9.7 9.5 S 5.6 5.6 7.4 96 1030.8(0.9/3h) -- -- -- --
08:00 4.6 4.6 3.9 E 1.9 1.9 3.7 95 1030.8(1.2/3h) -- -- -- --
07:00 3.0 3.0 2.3 S 1.9 1.9 1.9 95 1030.4(0.7/3h) -- -- -- --
06:00 3.7 3.7 3.0 ENE 1.9 3.7 3.7 95 1030(0.5/3h) -- -- 0.1/12h
--
05:00 3.5 3.5 2.8 E 1.9 1.9 3.7 95 1029.6(0.0/3h) -- -- -- --
04:00 3.2 3.2 2.4 NNO 0.0 1.9 1.9 94 1029.7(0.6/3h) -- -- -- --
03:00 3.6 3.6 2.7 N 1.9 3.7 3.7 94 1029.5(0.7/3h) -- -- -- --
02:00 4.4 4.4 3.5 NNO 0.0 1.9 1.9 94 1029.6(1.1/3h) -- -- -- --
01:00 6.1 6.1 5.2 S 1.9 3.7 3.7 94 1029.1(1.1/3h) -- -- -- --
00:00 7.6 7.6 6.8 SO 1.9 3.7 5.6 95 1028.8(1.1/3h) -- -- 0.1/6h
--

1 Coordinated Universal Time. Actuellement il est 13:00 locale et 11:00 UTC.

2 Le vent souffle depuis la direction indiquée vers la direction oposée.

3 Les rafales max. sont disponible 40 min après l'heure du relevé.

4 Pour les stations d'altitude (plus de 600m) le géopotentiel du niveau le plus proche de la pression obligatoire est indiqué.

5 Les stations disposant d'un diffuseur peuvent indiquer "trace". Cela signifie que des précipitations ont touchés le sol mais que la quantité est inférieure à 0.1 mm.

Récapitulatif de la journée
Température [°C] Vent [km/h] Ensoleillement4 [h] Precipitations totale5 [mm] Pression [Hpa]
Min1 Max.2 Moy.3 Max. Min Max.
2.6 18.7 3.3 9.3 0 h 0 min 0 1028.8 1030.8

1 Température minimale relevée entre 18:00 UTC la veille et 18:00 UTC le jour donné.

2 Température maximale relevée entre 06:00 UTC le jour donné et 06:00 UTC le lendemain.

3 Vent moyen de la journée basé sur les relevés horaires.

4 Ensoleillement en heures relevé entre 06:00 UTC la veille et 06:00 UTC le jour donné.

5 Précipitations totales tombées entre 06:00 UTC la jour donné et 06:00 UTC le lendemain.

Graphiques horaires